createdAt,value
2022-10-08T00:00:37.539Z,8.64
2022-10-08T00:03:07.301Z,8.66
2022-10-08T00:05:37.459Z,8.68
2022-10-08T00:08:11.218Z,8.71
2022-10-08T00:10:40.890Z,8.74
2022-10-08T00:13:10.808Z,8.79
2022-10-08T00:15:41.093Z,8.85
2022-10-08T00:18:11.292Z,8.88
2022-10-08T00:20:41.462Z,8.91
2022-10-08T00:23:14.805Z,8.94
2022-10-08T00:25:45.524Z,8.99
2022-10-08T00:28:16.358Z,8.99
2022-10-08T00:30:46.344Z,9.00
2022-10-08T00:33:17.286Z,9.01
2022-10-08T00:35:46.808Z,9.05
2022-10-08T00:38:19.169Z,9.09
2022-10-08T00:40:49.129Z,9.06
2022-10-08T00:43:23.907Z,9.01
2022-10-08T00:45:55.521Z,8.97
2022-10-08T00:48:26.739Z,8.92
2022-10-08T00:50:57.559Z,8.88
2022-10-08T00:53:30.234Z,8.80
2022-10-08T00:55:59.808Z,8.74
2022-10-08T00:58:30.024Z,8.70
2022-10-08T01:01:00.306Z,8.67
2022-10-08T01:03:29.896Z,8.64
2022-10-08T01:06:05.165Z,8.65
2022-10-08T01:08:41.653Z,8.63
2022-10-08T01:11:17.449Z,8.62
2022-10-08T01:13:55.043Z,8.62
2022-10-08T01:16:30.521Z,8.63
2022-10-08T01:19:05.841Z,8.60
2022-10-08T01:21:43.482Z,8.61
2022-10-08T01:24:49.165Z,8.62
2022-10-08T01:27:28.141Z,8.60
2022-10-08T01:29:58.118Z,8.57
2022-10-08T01:32:34.957Z,8.54
2022-10-08T01:35:07.534Z,8.50
2022-10-08T01:37:40.792Z,8.46
2022-10-08T01:40:14.786Z,8.42
2022-10-08T01:42:49.557Z,8.38
2022-10-08T01:45:22.114Z,8.37
2022-10-08T01:47:52.682Z,8.38
2022-10-08T01:50:27.154Z,8.46
2022-10-08T01:52:59.714Z,8.55
2022-10-08T01:55:31.865Z,8.66
2022-10-08T01:58:06.664Z,8.75
2022-10-08T02:00:37.138Z,8.82
2022-10-08T02:03:06.833Z,8.88
2022-10-08T02:05:39.116Z,8.91
2022-10-08T02:08:08.677Z,8.93
2022-10-08T02:10:38.674Z,8.97
2022-10-08T02:13:10.855Z,9.03
2022-10-08T02:15:44.159Z,9.11
2022-10-08T02:18:18.410Z,9.20
2022-10-08T02:20:52.646Z,9.28
2022-10-08T02:23:24.154Z,9.37
2022-10-08T02:25:57.153Z,9.44
2022-10-08T02:28:33.962Z,9.52
2022-10-08T02:31:08.705Z,9.57
2022-10-08T02:33:40.983Z,9.63
2022-10-08T02:36:11.805Z,9.70
2022-10-08T02:38:44.376Z,9.75
2022-10-08T02:41:14.377Z,9.78
2022-10-08T02:43:49.358Z,9.81
2022-10-08T02:46:20.625Z,9.83
2022-10-08T02:48:54.894Z,9.84
2022-10-08T02:51:24.678Z,9.82
2022-10-08T02:53:54.280Z,9.81
2022-10-08T02:56:27.787Z,9.86
2022-10-08T02:59:00.986Z,9.90
2022-10-08T03:01:36.043Z,9.94
2022-10-08T03:04:08.124Z,9.99
2022-10-08T03:06:37.941Z,10.05
2022-10-08T03:09:08.850Z,10.09
2022-10-08T03:11:38.466Z,10.16
2022-10-08T03:14:13.097Z,10.20
2022-10-08T03:16:44.042Z,10.24
2022-10-08T03:19:14.949Z,10.28
2022-10-08T03:21:46.037Z,10.30
2022-10-08T03:24:16.914Z,10.32
2022-10-08T03:26:46.597Z,10.33
2022-10-08T03:29:18.838Z,10.36
2022-10-08T03:31:50.402Z,10.39
2022-10-08T03:34:19.992Z,10.42
2022-10-08T03:36:50.040Z,10.43
2022-10-08T03:39:19.837Z,10.46
2022-10-08T03:41:49.398Z,10.49
2022-10-08T03:44:21.585Z,10.54
2022-10-08T03:46:51.164Z,10.60
2022-10-08T03:49:20.725Z,10.65
2022-10-08T03:51:50.322Z,10.69
2022-10-08T03:54:19.922Z,10.72
2022-10-08T03:56:49.485Z,10.77
2022-10-08T03:59:21.652Z,10.82
2022-10-08T04:01:51.282Z,10.87
2022-10-08T04:04:25.372Z,10.89
2022-10-08T04:06:55.764Z,10.89
2022-10-08T04:09:25.357Z,10.87
2022-10-08T04:11:54.919Z,10.87
2022-10-08T04:14:27.165Z,10.90
2022-10-08T04:16:57.099Z,10.92
2022-10-08T04:19:26.689Z,10.94
2022-10-08T04:21:56.246Z,10.92
2022-10-08T04:24:25.786Z,10.91
2022-10-08T04:26:55.341Z,10.88
2022-10-08T04:29:27.494Z,10.89
2022-10-08T04:31:57.063Z,10.88
2022-10-08T04:34:26.760Z,10.84
2022-10-08T04:36:56.304Z,10.81
2022-10-08T04:39:25.875Z,10.75
2022-10-08T04:41:55.408Z,10.71
2022-10-08T04:44:27.602Z,10.65
2022-10-08T04:46:57.179Z,10.62
2022-10-08T04:49:28.971Z,10.56
2022-10-08T04:51:58.725Z,10.50
2022-10-08T04:54:28.561Z,10.47
2022-10-08T04:56:58.123Z,10.45
2022-10-08T04:59:30.586Z,10.43
2022-10-08T05:02:00.297Z,10.41
2022-10-08T05:04:29.913Z,10.37
2022-10-08T05:06:59.566Z,10.36
2022-10-08T05:09:29.209Z,10.32
2022-10-08T05:11:58.793Z,10.32
2022-10-08T05:14:31.202Z,10.31
2022-10-08T05:17:00.763Z,10.30
2022-10-08T05:19:30.370Z,10.28
2022-10-08T05:21:59.982Z,10.27
2022-10-08T05:24:29.818Z,10.27
2022-10-08T05:26:59.584Z,10.27
2022-10-08T05:29:32.286Z,10.27
2022-10-08T05:32:01.999Z,10.27
2022-10-08T05:34:31.565Z,10.27
2022-10-08T05:37:01.143Z,10.26
2022-10-08T05:39:30.724Z,10.26
2022-10-08T05:42:00.314Z,10.26
2022-10-08T05:44:37.452Z,10.26
2022-10-08T05:47:07.457Z,10.28
2022-10-08T05:49:37.153Z,10.27
2022-10-08T05:52:06.734Z,10.29
2022-10-08T05:54:36.319Z,10.30
2022-10-08T05:57:06.086Z,10.31
2022-10-08T05:59:38.285Z,10.34
2022-10-08T06:02:07.939Z,10.37
2022-10-08T06:04:37.612Z,10.40
2022-10-08T06:07:07.198Z,10.43
2022-10-08T06:09:36.778Z,10.46
2022-10-08T06:12:06.542Z,10.49
2022-10-08T06:14:39.146Z,10.54
2022-10-08T06:17:08.929Z,10.59
2022-10-08T06:19:39.126Z,10.62
2022-10-08T06:22:08.802Z,10.66
2022-10-08T06:24:38.388Z,10.68
2022-10-08T06:27:08.761Z,10.69
2022-10-08T06:29:40.925Z,10.69
2022-10-08T06:32:10.469Z,10.71
2022-10-08T06:34:42.051Z,10.75
2022-10-08T06:37:11.633Z,10.79
2022-10-08T06:39:44.892Z,10.79
2022-10-08T06:42:17.199Z,10.80
2022-10-08T06:44:49.754Z,10.80
2022-10-08T06:47:19.388Z,10.78
2022-10-08T06:49:48.988Z,10.80
2022-10-08T06:52:18.587Z,10.82
2022-10-08T06:54:48.138Z,10.86
2022-10-08T06:57:17.694Z,10.89
2022-10-08T06:59:49.926Z,10.93
2022-10-08T07:02:19.582Z,10.95
2022-10-08T07:04:49.332Z,10.96
2022-10-08T07:07:19.576Z,10.98
2022-10-08T07:09:49.130Z,11.01
2022-10-08T07:12:18.738Z,11.04
2022-10-08T07:14:50.992Z,11.07
2022-10-08T07:17:20.684Z,11.15
2022-10-08T07:19:50.237Z,11.22
2022-10-08T07:22:19.792Z,11.29
2022-10-08T07:24:49.375Z,11.35
2022-10-08T07:27:19.604Z,11.41
2022-10-08T07:29:51.765Z,11.48
2022-10-08T07:32:21.308Z,11.54
2022-10-08T07:34:50.896Z,11.62
2022-10-08T07:37:20.450Z,11.66
2022-10-08T07:39:50.015Z,11.72
2022-10-08T07:42:19.558Z,11.77
2022-10-08T07:44:51.703Z,11.82
2022-10-08T07:47:21.489Z,11.87
2022-10-08T07:49:51.491Z,11.93
2022-10-08T07:52:21.073Z,11.95
2022-10-08T07:54:50.612Z,12.02
2022-10-08T07:57:20.172Z,12.08
2022-10-08T07:59:52.411Z,12.16
2022-10-08T08:02:22.011Z,12.22
2022-10-08T08:04:51.614Z,12.29
2022-10-08T08:07:21.204Z,12.37
2022-10-08T08:09:50.818Z,12.48
2022-10-08T08:12:20.422Z,12.63
2022-10-08T08:14:52.625Z,12.77
2022-10-08T08:17:22.233Z,13.00
2022-10-08T08:19:51.835Z,13.58
2022-10-08T08:22:21.912Z,14.46
2022-10-08T08:24:51.499Z,15.06
2022-10-08T08:27:21.326Z,15.47
2022-10-08T08:29:53.498Z,15.87
2022-10-08T08:32:28.242Z,16.62
2022-10-08T08:34:58.140Z,17.59
2022-10-08T08:37:27.831Z,18.77
2022-10-08T08:39:57.481Z,20.04
2022-10-08T08:42:45.628Z,20.51
2022-10-08T08:45:45.242Z,20.39
2022-10-08T08:48:20.064Z,20.06
2022-10-08T08:50:50.105Z,19.53
2022-10-08T08:53:20.210Z,18.93
2022-10-08T08:55:51.999Z,18.41
2022-10-08T08:58:27.511Z,17.91
2022-10-08T09:01:19.010Z,17.52
2022-10-08T09:03:51.122Z,17.42
2022-10-08T09:06:22.787Z,17.20
2022-10-08T09:08:54.386Z,17.28
2022-10-08T09:11:25.313Z,17.77
2022-10-08T09:13:58.366Z,18.41
2022-10-08T09:16:31.698Z,18.86
2022-10-08T09:19:01.311Z,18.78
2022-10-08T09:21:32.698Z,18.49
2022-10-08T09:24:02.893Z,18.24
2022-10-08T09:26:34.230Z,17.93
2022-10-08T09:29:05.208Z,18.04
2022-10-08T09:31:43.640Z,18.58
2022-10-08T09:34:20.507Z,19.24
2022-10-08T09:36:52.471Z,19.36
2022-10-08T09:39:23.730Z,19.09
2022-10-08T09:42:14.045Z,18.89
2022-10-08T09:44:44.914Z,19.42
2022-10-08T09:47:18.741Z,20.24
2022-10-08T09:49:51.598Z,20.54
2022-10-08T09:52:23.814Z,20.33
2022-10-08T09:54:56.430Z,19.81
2022-10-08T09:57:26.111Z,19.31
2022-10-08T09:59:57.357Z,18.86
2022-10-08T10:02:34.788Z,18.40
2022-10-08T10:05:06.855Z,18.03
2022-10-08T10:07:42.993Z,17.79
2022-10-08T10:10:19.602Z,17.72
2022-10-08T10:12:51.841Z,17.65
2022-10-08T10:15:23.248Z,17.45
2022-10-08T10:17:57.510Z,17.16
2022-10-08T10:20:30.534Z,16.91
2022-10-08T10:23:03.747Z,16.70
2022-10-08T10:25:38.471Z,16.57
2022-10-08T10:28:11.723Z,16.51
2022-10-08T10:30:50.878Z,16.55
2022-10-08T10:33:26.784Z,16.56
2022-10-08T10:36:00.424Z,16.57
2022-10-08T10:38:32.577Z,16.54
2022-10-08T10:41:08.922Z,16.50
2022-10-08T10:43:45.721Z,16.39
2022-10-08T10:46:25.977Z,16.28
2022-10-08T10:48:58.294Z,16.22
2022-10-08T10:51:52.246Z,16.11
2022-10-08T10:54:38.001Z,15.92
2022-10-08T10:57:10.782Z,15.71
2022-10-08T10:59:47.901Z,15.50
2022-10-08T11:02:26.130Z,15.28
2022-10-08T11:05:04.866Z,15.10
2022-10-08T11:07:51.322Z,14.96
2022-10-08T11:10:30.909Z,14.93
2022-10-08T11:13:04.061Z,14.98
2022-10-08T11:15:39.071Z,15.14
2022-10-08T11:18:17.646Z,15.41
2022-10-08T11:21:02.611Z,15.76
2022-10-08T11:23:57.746Z,16.17
2022-10-08T11:26:32.596Z,16.54
2022-10-08T11:29:09.719Z,16.74
2022-10-08T11:31:43.848Z,16.69
2022-10-08T11:34:25.955Z,16.51
2022-10-08T11:37:06.275Z,16.32
2022-10-08T11:39:43.125Z,16.17
2022-10-08T11:42:17.776Z,16.11
2022-10-08T11:44:47.420Z,16.06
2022-10-08T11:47:37.858Z,15.90
2022-10-08T11:50:08.713Z,15.63
2022-10-08T11:52:40.870Z,15.40
2022-10-08T11:55:27.009Z,15.16
2022-10-08T11:58:14.048Z,14.95
2022-10-08T12:00:45.243Z,14.79
2022-10-08T12:03:28.240Z,14.66
2022-10-08T12:06:00.252Z,14.61
2022-10-08T12:08:54.407Z,14.61
2022-10-08T12:11:49.897Z,14.66
2022-10-08T12:14:35.702Z,14.75
2022-10-08T12:17:13.297Z,14.80
2022-10-08T12:19:48.303Z,14.86
2022-10-08T12:22:45.990Z,14.94
2022-10-08T12:25:40.506Z,15.01
2022-10-08T12:28:40.221Z,15.06
2022-10-08T12:31:22.255Z,15.14
2022-10-08T12:34:03.779Z,15.20
2022-10-08T12:36:39.851Z,15.29
2022-10-08T12:39:14.544Z,15.40
2022-10-08T12:41:56.902Z,15.52
2022-10-08T12:44:39.193Z,15.62
2022-10-08T12:47:16.887Z,15.69
2022-10-08T12:49:50.270Z,15.64
2022-10-08T12:52:20.843Z,15.52
2022-10-08T12:54:53.231Z,15.36
2022-10-08T12:57:30.191Z,15.18
2022-10-08T13:00:01.203Z,14.98
2022-10-08T13:02:38.382Z,14.83
2022-10-08T13:05:09.322Z,14.76
2022-10-08T13:07:39.263Z,14.79
2022-10-08T13:10:20.727Z,14.90
2022-10-08T13:13:07.057Z,15.06
2022-10-08T13:15:37.481Z,15.24
2022-10-08T13:18:16.575Z,15.40
2022-10-08T13:20:59.333Z,15.58
2022-10-08T13:23:34.176Z,15.76
2022-10-08T13:26:03.876Z,15.90
2022-10-08T13:28:59.138Z,16.05
2022-10-08T13:31:26.678Z,16.23
2022-10-08T13:33:59.955Z,16.38
2022-10-08T13:36:33.433Z,16.53
2022-10-08T13:39:06.046Z,16.64
2022-10-08T13:41:36.017Z,16.78
2022-10-08T13:44:09.151Z,16.96
2022-10-08T13:46:42.672Z,17.12
2022-10-08T13:49:24.293Z,17.32
2022-10-08T13:51:55.947Z,17.42
2022-10-08T13:54:27.289Z,17.39
2022-10-08T13:56:57.335Z,17.22
2022-10-08T13:59:31.193Z,16.94
2022-10-08T14:02:01.188Z,16.62
2022-10-08T14:04:31.807Z,16.29
2022-10-08T14:07:02.891Z,15.98
2022-10-08T14:09:36.948Z,15.69
2022-10-08T14:12:08.011Z,15.44
2022-10-08T14:14:43.456Z,15.27
2022-10-08T14:17:13.972Z,15.17
2022-10-08T14:19:48.061Z,15.09
2022-10-08T14:22:19.287Z,15.09
2022-10-08T14:24:50.277Z,15.07
2022-10-08T14:27:21.187Z,15.09
2022-10-08T14:29:55.752Z,15.09
2022-10-08T14:32:26.062Z,15.10
2022-10-08T14:34:55.793Z,15.11
2022-10-08T14:37:26.114Z,15.15
2022-10-08T14:39:56.800Z,15.19
2022-10-08T14:42:26.793Z,15.22
2022-10-08T14:44:59.192Z,15.23
2022-10-08T14:47:28.820Z,15.22
2022-10-08T14:49:59.292Z,15.23
2022-10-08T14:52:29.222Z,15.28
2022-10-08T14:54:59.896Z,15.37
2022-10-08T14:57:30.754Z,15.41
2022-10-08T15:00:03.670Z,15.40
2022-10-08T15:02:34.513Z,15.35
2022-10-08T15:05:06.000Z,15.28
2022-10-08T15:07:36.497Z,15.21
2022-10-08T15:10:10.101Z,15.15
2022-10-08T15:12:40.183Z,15.09
2022-10-08T15:15:13.883Z,15.04
2022-10-08T15:17:43.742Z,15.01
2022-10-08T15:20:17.537Z,14.98
2022-10-08T15:22:47.350Z,14.98
2022-10-08T15:25:18.057Z,14.97
2022-10-08T15:27:51.696Z,14.93
2022-10-08T15:30:26.743Z,14.86
2022-10-08T15:32:59.271Z,14.76
2022-10-08T15:35:29.132Z,14.64
2022-10-08T15:38:04.235Z,14.50
2022-10-08T15:40:34.107Z,14.41
2022-10-08T15:43:03.995Z,14.29
2022-10-08T15:45:44.277Z,14.21
2022-10-08T15:48:14.254Z,14.14
2022-10-08T15:50:43.904Z,14.06
2022-10-08T15:53:15.328Z,14.00
2022-10-08T15:55:57.303Z,13.95
2022-10-08T15:58:46.136Z,13.87
2022-10-08T16:01:21.537Z,13.79
2022-10-08T16:03:53.448Z,13.74
2022-10-08T16:06:25.378Z,13.68
2022-10-08T16:08:56.291Z,13.62
2022-10-08T16:11:30.469Z,13.55
2022-10-08T16:14:03.303Z,13.50
2022-10-08T16:16:36.547Z,13.44
2022-10-08T16:19:10.243Z,13.37
2022-10-08T16:21:40.953Z,13.29
2022-10-08T16:24:10.839Z,13.20
2022-10-08T16:26:44.298Z,13.12
2022-10-08T16:29:16.524Z,13.03
2022-10-08T16:31:49.461Z,12.95
2022-10-08T16:34:21.685Z,12.86
2022-10-08T16:36:51.841Z,12.75
2022-10-08T16:39:24.417Z,12.64
2022-10-08T16:41:54.113Z,12.54
2022-10-08T16:44:24.035Z,12.43
2022-10-08T16:46:56.244Z,12.31
2022-10-08T16:49:27.017Z,12.21
2022-10-08T16:51:58.101Z,12.09
2022-10-08T16:54:28.652Z,11.98
2022-10-08T16:57:02.643Z,11.85
2022-10-08T16:59:33.284Z,11.73
2022-10-08T17:02:05.983Z,11.62
2022-10-08T17:04:39.765Z,11.50
2022-10-08T17:07:10.113Z,11.37
2022-10-08T17:09:40.135Z,11.25
2022-10-08T17:12:10.100Z,11.13
2022-10-08T17:14:40.776Z,11.01
2022-10-08T17:17:13.893Z,10.89
2022-10-08T17:19:44.948Z,10.76
2022-10-08T17:22:16.496Z,10.63
2022-10-08T17:24:46.771Z,10.52
2022-10-08T17:27:16.476Z,10.41
2022-10-08T17:29:46.616Z,10.29
2022-10-08T17:32:19.073Z,10.20
2022-10-08T17:34:48.672Z,10.10
2022-10-08T17:37:18.267Z,9.99
2022-10-08T17:39:47.910Z,9.91
2022-10-08T17:42:17.521Z,9.81
2022-10-08T17:44:47.407Z,9.70
2022-10-08T17:47:19.559Z,9.62
2022-10-08T17:49:49.210Z,9.54
2022-10-08T17:52:18.858Z,9.47
2022-10-08T17:54:48.498Z,9.40
2022-10-08T17:57:18.053Z,9.34
2022-10-08T17:59:47.651Z,9.28
2022-10-08T18:02:19.910Z,9.22
2022-10-08T18:04:49.641Z,9.17
2022-10-08T18:07:19.673Z,9.12
2022-10-08T18:09:50.045Z,9.05
2022-10-08T18:12:19.602Z,8.98
2022-10-08T18:14:49.285Z,8.94
2022-10-08T18:17:21.472Z,8.89
2022-10-08T18:19:51.074Z,8.84
2022-10-08T18:22:22.916Z,8.78
2022-10-08T18:24:52.722Z,8.72
2022-10-08T18:27:22.436Z,8.68
2022-10-08T18:29:52.023Z,8.64
2022-10-08T18:32:24.318Z,8.61
2022-10-08T18:34:53.929Z,8.57
2022-10-08T18:37:25.276Z,8.53
2022-10-08T18:39:54.856Z,8.48
2022-10-08T18:42:24.409Z,8.43
2022-10-08T18:44:54.034Z,8.38
2022-10-08T18:47:26.387Z,8.34
2022-10-08T18:49:55.986Z,8.28
2022-10-08T18:52:27.897Z,8.22
2022-10-08T18:54:57.488Z,8.13
2022-10-08T18:57:27.503Z,8.06
2022-10-08T18:59:57.130Z,8.01
2022-10-08T19:02:29.551Z,7.97
2022-10-08T19:05:00.957Z,7.91
2022-10-08T19:07:30.528Z,7.89
2022-10-08T19:10:00.152Z,7.85
2022-10-08T19:12:29.727Z,7.79
2022-10-08T19:14:59.313Z,7.75
2022-10-08T19:17:31.491Z,7.73
2022-10-08T19:20:01.086Z,7.69
2022-10-08T19:22:30.898Z,7.65
2022-10-08T19:25:00.490Z,7.63
2022-10-08T19:27:30.081Z,7.60
2022-10-08T19:29:59.649Z,7.56
2022-10-08T19:32:32.436Z,7.53
2022-10-08T19:35:02.023Z,7.51
2022-10-08T19:37:31.845Z,7.48
2022-10-08T19:40:01.468Z,7.41
2022-10-08T19:42:31.146Z,7.39
2022-10-08T19:45:00.727Z,7.35
2022-10-08T19:47:32.883Z,7.32
2022-10-08T19:50:02.488Z,7.28
2022-10-08T19:52:32.101Z,7.26
2022-10-08T19:55:01.713Z,7.26
2022-10-08T19:57:31.362Z,7.24
2022-10-08T20:00:01.042Z,7.19
2022-10-08T20:02:33.458Z,7.15
2022-10-08T20:05:03.183Z,7.10
2022-10-08T20:07:32.759Z,7.02
2022-10-08T20:10:02.470Z,6.96
2022-10-08T20:12:32.073Z,6.89
2022-10-08T20:15:01.810Z,6.84
2022-10-08T20:17:34.234Z,6.81
2022-10-08T20:20:20.852Z,6.76
2022-10-08T20:22:54.830Z,6.71
2022-10-08T20:25:24.748Z,6.69
2022-10-08T20:27:54.633Z,6.65
2022-10-08T20:30:24.390Z,6.63
2022-10-08T20:32:56.592Z,6.58
2022-10-08T20:35:26.276Z,6.54
2022-10-08T20:37:55.857Z,6.51
2022-10-08T20:40:25.487Z,6.49
2022-10-08T20:42:55.107Z,6.46
2022-10-08T20:45:24.828Z,6.44
2022-10-08T20:47:57.221Z,6.46
2022-10-08T20:50:26.919Z,6.48
2022-10-08T20:52:56.505Z,6.50
2022-10-08T20:55:26.129Z,6.51
2022-10-08T20:57:55.667Z,6.51
2022-10-08T21:00:25.548Z,6.50
2022-10-08T21:02:57.722Z,6.48
2022-10-08T21:05:27.723Z,6.46
2022-10-08T21:07:57.310Z,6.39
2022-10-08T21:10:27.233Z,6.34
2022-10-08T21:12:56.830Z,6.28
2022-10-08T21:15:27.212Z,6.22
2022-10-08T21:17:59.473Z,6.18
2022-10-08T21:20:29.067Z,6.14
2022-10-08T21:22:58.723Z,6.09
2022-10-08T21:25:28.354Z,6.07
2022-10-08T21:27:58.354Z,6.04
2022-10-08T21:30:28.218Z,6.02
2022-10-08T21:33:02.080Z,6.02
2022-10-08T21:35:31.861Z,6.00
2022-10-08T21:38:01.820Z,6.00
2022-10-08T21:40:31.390Z,5.98
2022-10-08T21:43:00.950Z,6.01
2022-10-08T21:45:30.639Z,6.05
2022-10-08T21:48:05.090Z,6.06
2022-10-08T21:50:36.251Z,6.02
2022-10-08T21:53:06.017Z,5.98
2022-10-08T21:55:35.622Z,5.93
2022-10-08T21:58:05.183Z,5.89
2022-10-08T22:00:36.769Z,5.85
2022-10-08T22:03:08.976Z,5.83
2022-10-08T22:05:38.576Z,5.80
2022-10-08T22:08:08.207Z,5.78
2022-10-08T22:10:40.011Z,5.75
2022-10-08T22:13:09.700Z,5.75
2022-10-08T22:15:39.312Z,5.78
2022-10-08T22:18:11.480Z,5.75
2022-10-08T22:20:41.349Z,5.70
2022-10-08T22:23:10.981Z,5.65
2022-10-08T22:25:40.811Z,5.57
2022-10-08T22:28:10.976Z,5.55
2022-10-08T22:30:40.652Z,5.53
2022-10-08T22:33:13.030Z,5.54
2022-10-08T22:35:43.073Z,5.53
2022-10-08T22:38:12.936Z,5.58
2022-10-08T22:40:42.650Z,5.62
2022-10-08T22:43:12.301Z,5.63
2022-10-08T22:45:42.189Z,5.62
2022-10-08T22:48:14.353Z,5.56
2022-10-08T22:50:43.905Z,5.53
2022-10-08T22:53:13.508Z,5.52
2022-10-08T22:55:43.843Z,5.51
2022-10-08T22:58:13.458Z,5.47
2022-10-08T23:00:43.029Z,5.42
2022-10-08T23:03:15.247Z,5.37
2022-10-08T23:05:44.857Z,5.35
2022-10-08T23:08:14.754Z,5.32
2022-10-08T23:10:44.499Z,5.31
2022-10-08T23:13:14.077Z,5.36
2022-10-08T23:15:43.613Z,5.41
2022-10-08T23:18:15.925Z,5.44
2022-10-08T23:20:45.518Z,5.47
2022-10-08T23:23:15.065Z,5.48
2022-10-08T23:25:44.682Z,5.47
2022-10-08T23:28:14.306Z,5.41
2022-10-08T23:30:43.891Z,5.35
2022-10-08T23:33:16.159Z,5.30
2022-10-08T23:35:45.780Z,5.23
2022-10-08T23:38:15.353Z,5.22
2022-10-08T23:40:44.935Z,5.22
2022-10-08T23:43:14.472Z,5.23
2022-10-08T23:45:44.110Z,5.25
2022-10-08T23:48:16.356Z,5.23
2022-10-08T23:50:46.253Z,5.20
2022-10-08T23:53:17.929Z,5.15
2022-10-08T23:55:47.509Z,5.11
2022-10-08T23:58:17.944Z,5.03
